Time;durP1;ratioP1;P1;durP2;ratioP2;P2;SDS_P1;SDS_P2;PMS_P1;PMS_P2;Temp;Humidity;BMP_temperature;BMP_pressure;BME280_temperature;BME280_humidity;BME280_pressure;Samples;Min_cycle;Max_cycle;Signal;HPM_P1;HPM_P2
2022/04/25 00:01:23;;;;;;;13.00;6.00;;;10.50;99.90;;;;;;5041082;28;20503;-85
2022/04/25 00:03:49;;;;;;;7.65;5.80;;;10.40;99.90;;;;;;5058914;28;20041;-86
2022/04/25 00:06:15;;;;;;;7.32;5.75;;;10.40;99.90;;;;;;5040495;28;20370;-85
2022/04/25 00:08:41;;;;;;;13.07;6.88;;;10.40;99.90;;;;;;5040105;28;20025;-83
2022/04/25 00:11:07;;;;;;;11.23;5.82;;;10.40;99.90;;;;;;5059529;28;20047;-84
2022/04/25 00:13:32;;;;;;;15.48;7.35;;;10.40;99.90;;;;;;5059835;28;20024;-85
2022/04/25 00:15:58;;;;;;;10.05;6.03;;;10.30;99.90;;;;;;5077683;28;20039;-84
2022/04/25 00:18:24;;;;;;;8.15;6.03;;;10.30;99.90;;;;;;5059516;28;20104;-84
2022/04/25 00:20:50;;;;;;;6.60;4.18;;;10.30;99.90;;;;;;5078043;28;20038;-85
2022/04/25 00:23:16;;;;;;;7.55;4.65;;;10.20;99.90;;;;;;5060406;28;20024;-84
2022/04/25 00:25:41;;;;;;;3.97;3.20;;;10.20;99.90;;;;;;5078518;28;20503;-85
2022/04/25 00:28:07;;;;;;;6.47;3.80;;;10.10;99.90;;;;;;5079296;28;20032;-86
2022/04/25 00:30:33;;;;;;;5.55;4.35;;;10.10;99.90;;;;;;5060573;28;20024;-84
2022/04/25 00:32:59;;;;;;;6.22;4.30;;;10.00;99.90;;;;;;5059794;28;20040;-88
2022/04/25 00:35:25;;;;;;;5.85;4.05;;;9.90;99.90;;;;;;5058917;28;20025;-87
2022/04/25 00:37:51;;;;;;;6.72;4.75;;;9.70;99.90;;;;;;5076061;28;20023;-88
2022/04/25 00:40:22;;;;;;;8.82;4.65;;;9.60;99.90;;;;;;5077287;28;20062;-86
2022/04/25 00:42:48;;;;;;;7.35;4.47;;;9.50;99.90;;;;;;5077414;28;20025;-84
2022/04/25 00:45:15;;;;;;;8.55;5.03;;;9.30;99.90;;;;;;5076978;28;20032;-83
2022/04/25 00:47:42;;;;;;;9.18;5.35;;;9.20;99.90;;;;;;5059580;28;20024;-82
2022/04/25 00:50:08;;;;;;;11.48;6.28;;;9.10;99.90;;;;;;5077624;28;20031;-85
2022/04/25 00:52:35;;;;;;;9.68;5.93;;;9.00;99.90;;;;;;5059036;28;20056;-87
2022/04/25 00:55:03;;;;;;;9.60;6.38;;;8.90;99.90;;;;;;5059716;28;20116;-85
2022/04/25 00:57:31;;;;;;;10.57;6.60;;;8.80;99.90;;;;;;5078410;28;20052;-84
2022/04/25 00:59:57;;;;;;;10.48;6.57;;;8.80;99.90;;;;;;5060623;28;20111;-87
2022/04/25 01:02:30;;;;;;;8.80;6.05;;;8.60;99.90;;;;;;5074517;28;20020;-84
2022/04/25 01:04:59;;;;;;;8.80;6.03;;;8.60;99.90;;;;;;5092203;28;20503;-85
2022/04/25 01:07:25;;;;;;;7.07;5.22;;;8.50;99.90;;;;;;5076901;28;20030;-87
2022/04/25 01:09:51;;;;;;;10.43;6.30;;;8.50;99.90;;;;;;5049572;28;20025;-87
2022/04/25 01:12:18;;;;;;;7.22;6.15;;;8.50;99.90;;;;;;5038478;28;20021;-86
2022/04/25 01:14:44;;;;;;;13.50;7.28;;;8.40;99.90;;;;;;5036876;28;20435;-87
2022/04/25 01:17:10;;;;;;;9.13;6.63;;;8.40;99.90;;;;;;5054998;28;20017;-87
2022/04/25 01:19:36;;;;;;;11.43;6.80;;;8.40;99.90;;;;;;5037384;28;20028;-86
2022/04/25 01:22:14;;;;;;;10.70;6.90;;;8.30;99.90;;;;;;5037322;28;20025;-86
2022/04/25 01:27:26;;;;;;;9.82;6.68;;;8.20;99.90;;;;;;5054310;28;20094;-86
2022/04/25 01:29:54;;;;;;;11.65;7.25;;;8.10;99.90;;;;;;5054278;28;20029;-85
2022/04/25 01:32:21;;;;;;;12.57;7.40;;;8.10;99.90;;;;;;5037109;28;20036;-85
2022/04/25 01:34:47;;;;;;;10.55;7.20;;;8.10;99.90;;;;;;5055128;28;20034;-85
2022/04/25 01:37:18;;;;;;;10.20;6.63;;;8.10;99.90;;;;;;5055433;28;20044;-84
2022/04/25 01:39:52;;;;;;;9.27;6.95;;;8.10;99.90;;;;;;5036819;28;20045;-86
2022/04/25 01:42:18;;;;;;;8.85;6.97;;;8.00;99.90;;;;;;5037318;28;20052;-87
2022/04/25 01:44:44;;;;;;;12.15;8.05;;;8.00;99.90;;;;;;5054529;28;20070;-85
2022/04/25 01:47:11;;;;;;;12.68;7.95;;;8.10;99.90;;;;;;5036400;28;20501;-86
2022/04/25 01:49:37;;;;;;;12.55;8.73;;;8.10;99.90;;;;;;5054704;28;20025;-87
2022/04/25 01:52:23;;;;;;;9.68;7.00;;;8.10;99.90;;;;;;5036664;28;20113;-87
2022/04/25 01:54:50;;;;;;;10.15;7.40;;;8.10;99.90;;;;;;5053937;28;20029;-88
2022/04/25 01:57:16;;;;;;;11.38;8.07;;;8.10;99.90;;;;;;5054899;28;20017;-85
2022/04/25 01:59:43;;;;;;;11.75;8.18;;;8.10;99.90;;;;;;5037148;28;20028;-85
2022/04/25 02:02:11;;;;;;;11.02;8.00;;;8.10;99.90;;;;;;5037067;28;20571;-85
2022/04/25 02:04:36;;;;;;;14.65;8.23;;;8.10;99.90;;;;;;5038285;28;20037;-85
2022/04/25 02:07:04;;;;;;;11.52;7.85;;;8.20;99.90;;;;;;5054265;28;20036;-84
2022/04/25 02:09:30;;;;;;;10.23;6.85;;;8.10;99.90;;;;;;5036835;28;20082;-85
2022/04/25 02:11:56;;;;;;;10.23;7.20;;;8.10;99.90;;;;;;5054326;28;20036;-85
2022/04/25 02:14:22;;;;;;;10.63;7.68;;;8.10;99.90;;;;;;5036546;28;20033;-86
2022/04/25 02:16:48;;;;;;;11.52;7.18;;;8.10;99.90;;;;;;5036388;28;20096;-86
2022/04/25 02:19:14;;;;;;;9.25;6.40;;;8.10;99.90;;;;;;5054111;28;20046;-85
2022/04/25 02:21:40;;;;;;;11.23;7.38;;;8.00;99.90;;;;;;5035296;28;20025;-86
2022/04/25 02:24:07;;;;;;;10.68;6.90;;;8.00;99.90;;;;;;5035527;28;20021;-87
2022/04/25 02:26:33;;;;;;;7.57;5.80;;;8.00;99.90;;;;;;5035564;28;20039;-85
2022/04/25 02:28:59;;;;;;;10.07;6.70;;;8.00;99.90;;;;;;5053893;28;20389;-86
2022/04/25 02:31:25;;;;;;;10.02;6.85;;;8.00;99.90;;;;;;5035699;28;20025;-85
2022/04/25 02:33:51;;;;;;;8.23;7.00;;;8.10;99.90;;;;;;5035531;28;20029;-85
2022/04/25 02:36:17;;;;;;;11.55;8.15;;;8.10;99.90;;;;;;5053292;28;20108;-85
2022/04/25 02:38:42;;;;;;;17.17;10.63;;;8.10;99.90;;;;;;5052899;28;20028;-85
2022/04/25 02:41:11;;;;;;;14.07;9.75;;;8.10;99.90;;;;;;5039432;28;20108;-86
2022/04/25 02:43:37;;;;;;;21.23;11.60;;;8.20;99.90;;;;;;5039401;28;20055;-86
2022/04/25 02:46:06;;;;;;;15.85;10.43;;;8.20;99.90;;;;;;5057463;28;20037;-86
2022/04/25 02:48:33;;;;;;;17.80;13.15;;;8.20;99.90;;;;;;5039514;28;20037;-87
2022/04/25 02:51:00;;;;;;;24.05;15.25;;;8.20;99.90;;;;;;5057416;28;20029;-86
2022/04/25 02:53:26;;;;;;;20.40;14.82;;;8.20;99.90;;;;;;5057440;28;20021;-85
2022/04/25 02:55:53;;;;;;;22.65;15.52;;;8.30;99.90;;;;;;5058214;28;20017;-86
2022/04/25 02:58:23;;;;;;;17.80;13.70;;;8.30;99.90;;;;;;5039586;28;20449;-84
2022/04/25 03:00:49;;;;;;;19.73;14.02;;;8.30;99.90;;;;;;5057940;28;20498;-85
2022/04/25 03:03:16;;;;;;;18.92;13.23;;;8.30;99.90;;;;;;5040214;28;20029;-83
2022/04/25 03:05:43;;;;;;;18.42;12.98;;;8.30;99.90;;;;;;5043509;28;20496;-86
2022/04/25 03:08:11;;;;;;;14.57;11.70;;;8.30;99.90;;;;;;5043149;28;20491;-82
2022/04/25 03:10:38;;;;;;;15.20;11.48;;;8.40;99.90;;;;;;5062460;28;20029;-82
2022/04/25 03:13:07;;;;;;;16.77;11.23;;;8.30;99.90;;;;;;5061353;28;20719;-85
2022/04/25 03:15:38;;;;;;;14.88;11.05;;;8.30;99.90;;;;;;5065071;28;20025;-85
2022/04/25 03:18:04;;;;;;;15.05;10.15;;;8.30;99.90;;;;;;5047105;28;20500;-82
2022/04/25 03:20:31;;;;;;;17.15;11.20;;;8.20;99.90;;;;;;5062311;28;20040;-82
2022/04/25 03:22:58;;;;;;;14.98;9.88;;;8.30;99.90;;;;;;5078354;28;20103;-86
2022/04/25 03:25:25;;;;;;;12.48;9.05;;;8.20;99.90;;;;;;5068492;28;20029;-86
2022/04/25 03:27:51;;;;;;;11.52;9.27;;;8.20;99.90;;;;;;5049205;28;20032;-84
2022/04/25 03:30:17;;;;;;;12.07;8.52;;;8.20;99.90;;;;;;5064813;28;20048;-87
2022/04/25 03:32:45;;;;;;;12.30;8.35;;;8.20;99.90;;;;;;5045686;28;20033;-86
2022/04/25 03:35:14;;;;;;;13.25;8.18;;;8.20;99.90;;;;;;5048136;28;20029;-87
2022/04/25 03:37:41;;;;;;;10.02;7.68;;;8.10;99.90;;;;;;5064634;28;20032;-86
2022/04/25 03:40:09;;;;;;;13.48;8.93;;;8.10;99.90;;;;;;5064792;28;20032;-86
2022/04/25 03:42:40;;;;;;;12.65;9.45;;;8.00;99.90;;;;;;5047556;28;20025;-86
2022/04/25 03:45:09;;;;;;;11.75;9.18;;;8.00;99.90;;;;;;5046559;28;20032;-87
2022/04/25 03:47:35;;;;;;;14.65;9.88;;;7.90;99.90;;;;;;5048381;28;20108;-87
2022/04/25 03:50:02;;;;;;;13.48;10.55;;;7.90;99.90;;;;;;5052957;28;20025;-85
2022/04/25 03:52:29;;;;;;;14.23;10.52;;;7.90;99.90;;;;;;5045918;28;20032;-87
2022/04/25 03:57:39;;;;;;;15.23;10.48;;;7.90;99.90;;;;;;5066591;28;20439;-87
2022/04/25 04:00:07;;;;;;;17.23;11.13;;;7.90;99.90;;;;;;5044465;28;20025;-86
2022/04/25 04:02:34;;;;;;;17.85;11.88;;;7.90;99.90;;;;;;5044418;28;20147;-88
2022/04/25 04:05:00;;;;;;;16.15;10.50;;;7.90;99.90;;;;;;5063519;28;20036;-88
2022/04/25 04:07:26;;;;;;;14.93;11.00;;;7.90;99.90;;;;;;5046330;28;20029;-86
2022/04/25 04:09:52;;;;;;;15.73;11.73;;;7.90;99.90;;;;;;5045979;28;20021;-86
2022/04/25 04:12:19;;;;;;;15.07;10.95;;;7.90;99.90;;;;;;5065059;28;20024;-84
2022/04/25 04:14:46;;;;;;;17.63;11.40;;;7.90;99.90;;;;;;5051369;28;20021;-85
2022/04/25 04:17:14;;;;;;;15.23;10.75;;;7.90;99.90;;;;;;5052024;28;20025;-89
2022/04/25 04:19:41;;;;;;;14.68;10.50;;;7.90;99.90;;;;;;5068858;28;20017;-87
2022/04/25 04:22:07;;;;;;;18.23;12.75;;;7.90;99.90;;;;;;5051365;28;20027;-85
2022/04/25 04:24:36;;;;;;;18.02;12.18;;;7.90;99.90;;;;;;5046794;28;20488;-87
2022/04/25 04:27:06;;;;;;;19.58;13.68;;;7.90;99.90;;;;;;5044302;28;20029;-87
2022/04/25 04:29:33;;;;;;;20.98;14.38;;;7.90;99.90;;;;;;5045442;28;20032;-85
2022/04/25 04:32:01;;;;;;;16.95;13.80;;;8.00;99.90;;;;;;5042782;28;20043;-88
2022/04/25 04:34:28;;;;;;;19.13;13.20;;;8.00;99.90;;;;;;5043280;28;20048;-87
2022/04/25 04:36:54;;;;;;;20.95;14.57;;;8.00;99.90;;;;;;5044376;28;20025;-86
2022/04/25 04:39:20;;;;;;;18.00;13.85;;;8.00;99.90;;;;;;5045350;28;20092;-84
2022/04/25 04:41:46;;;;;;;19.92;14.93;;;8.10;99.90;;;;;;5046477;28;20024;-85
2022/04/25 04:44:12;;;;;;;17.70;13.10;;;8.10;99.90;;;;;;5045150;28;20053;-85
2022/04/25 04:46:38;;;;;;;20.80;14.05;;;8.10;99.90;;;;;;5043765;28;20025;-81
2022/04/25 04:49:04;;;;;;;19.23;14.20;;;8.20;99.90;;;;;;5043123;28;20025;-87
2022/04/25 04:51:30;;;;;;;18.73;13.73;;;8.10;99.90;;;;;;5060695;28;20025;-84
2022/04/25 04:53:59;;;;;;;18.20;12.75;;;8.20;99.90;;;;;;5041792;28;20063;-87
2022/04/25 04:56:32;;;;;;;19.23;15.77;;;8.20;99.90;;;;;;5042243;28;20025;-85
2022/04/25 04:58:59;;;;;;;23.27;16.08;;;8.30;99.90;;;;;;5060941;28;20021;-83
2022/04/25 05:01:26;;;;;;;21.27;16.20;;;8.30;99.90;;;;;;5061159;28;20025;-85
2022/04/25 05:03:52;;;;;;;24.23;17.38;;;8.30;99.90;;;;;;5059223;28;20029;-87
2022/04/25 05:06:18;;;;;;;23.10;17.40;;;8.40;99.90;;;;;;5061290;28;20029;-85
2022/04/25 05:08:46;;;;;;;22.88;16.05;;;8.40;99.90;;;;;;5061633;28;20033;-85
2022/04/25 05:11:14;;;;;;;21.80;15.60;;;8.40;99.90;;;;;;5061322;28;20119;-84
2022/04/25 05:13:39;;;;;;;18.50;13.60;;;8.40;99.90;;;;;;5044129;28;20025;-84
2022/04/25 05:16:07;;;;;;;16.70;12.98;;;8.40;99.90;;;;;;5051653;28;20471;-84
2022/04/25 05:18:39;;;;;;;14.38;11.30;;;8.30;99.90;;;;;;5055522;28;20010;-84
2022/04/25 05:21:07;;;;;;;13.20;10.27;;;8.30;99.90;;;;;;5053865;28;20032;-86
2022/04/25 05:23:35;;;;;;;13.68;10.88;;;8.30;99.90;;;;;;5057687;28;20021;-86
2022/04/25 05:26:00;;;;;;;15.68;10.50;;;8.30;99.90;;;;;;5059170;28;20047;-84
2022/04/25 05:28:26;;;;;;;21.70;12.68;;;8.30;99.90;;;;;;5059116;28;20084;-85
2022/04/25 05:30:51;;;;;;;14.02;10.00;;;8.30;99.90;;;;;;5052712;28;20136;-83
2022/04/25 05:33:20;;;;;;;11.80;8.50;;;8.30;99.90;;;;;;5054970;28;20029;-84
2022/04/25 05:35:46;;;;;;;12.13;7.85;;;8.30;99.90;;;;;;5053828;28;20020;-86
2022/04/25 05:38:12;;;;;;;12.95;9.10;;;8.20;99.90;;;;;;5067481;28;20029;-83
2022/04/25 05:40:40;;;;;;;13.23;8.65;;;8.20;99.90;;;;;;5065975;28;20017;-85
2022/04/25 05:43:06;;;;;;;11.35;9.07;;;8.20;99.90;;;;;;5048536;28;20029;-86
2022/04/25 05:45:33;;;;;;;11.23;8.45;;;8.10;99.90;;;;;;5062778;28;20025;-82
2022/04/25 05:47:59;;;;;;;9.65;7.70;;;8.10;99.90;;;;;;5064737;28;20048;-84
2022/04/25 05:53:13;;;;;;;10.07;7.88;;;8.10;99.90;;;;;;5066407;28;20036;-84
2022/04/25 05:55:41;;;;;;;11.50;7.57;;;8.10;99.90;;;;;;5066870;28;20017;-86
2022/04/25 05:58:08;;;;;;;11.30;7.53;;;8.10;99.90;;;;;;5063815;28;20025;-87
2022/04/25 06:00:34;;;;;;;11.63;7.75;;;8.10;99.90;;;;;;5045833;28;20035;-84
2022/04/25 06:03:01;;;;;;;12.65;8.80;;;8.20;99.90;;;;;;5063430;28;20029;-85
2022/04/25 06:05:27;;;;;;;9.65;6.68;;;8.10;99.90;;;;;;5044891;28;20078;-83
2022/04/25 06:07:53;;;;;;;12.40;7.50;;;8.20;99.90;;;;;;5047311;28;20052;-85
2022/04/25 06:10:20;;;;;;;10.57;7.40;;;8.20;99.90;;;;;;5058244;28;20082;-85
2022/04/25 06:12:49;;;;;;;10.20;7.80;;;8.20;99.90;;;;;;5064650;28;20021;-84
2022/04/25 06:15:16;;;;;;;9.75;6.75;;;8.20;99.90;;;;;;5083801;28;20043;-84
2022/04/25 06:17:43;;;;;;;11.68;7.55;;;8.20;99.90;;;;;;5086379;28;20017;-86
2022/04/25 06:20:10;;;;;;;8.25;6.60;;;8.30;99.90;;;;;;5070223;28;20051;-85
2022/04/25 06:22:37;;;;;;;9.85;6.55;;;8.40;99.90;;;;;;5070558;28;20024;-84
2022/04/25 06:25:05;;;;;;;9.45;7.43;;;8.40;99.90;;;;;;5069087;28;20052;-84
2022/04/25 06:27:31;;;;;;;8.60;7.25;;;8.60;99.90;;;;;;5068783;28;20024;-84
2022/04/25 06:29:57;;;;;;;11.90;7.22;;;8.60;99.90;;;;;;5070171;28;20121;-86
2022/04/25 06:32:25;;;;;;;11.25;6.90;;;8.50;99.90;;;;;;5071236;28;20024;-86
2022/04/25 06:34:52;;;;;;;9.75;6.68;;;8.50;99.90;;;;;;5072179;28;20096;-82
2022/04/25 06:37:18;;;;;;;10.70;7.60;;;8.50;99.90;;;;;;5073680;28;20084;-85
2022/04/25 06:39:43;;;;;;;12.65;7.80;;;8.50;99.90;;;;;;5085877;28;20057;-83
2022/04/25 06:42:09;;;;;;;10.48;7.72;;;8.50;99.90;;;;;;5086507;28;20024;-86
2022/04/25 06:44:39;;;;;;;12.32;7.65;;;8.50;99.90;;;;;;5084094;28;20029;-85
2022/04/25 06:47:05;;;;;;;10.30;7.72;;;8.50;99.90;;;;;;5084625;28;20058;-85
2022/04/25 06:49:32;;;;;;;11.82;8.30;;;8.50;99.90;;;;;;5063477;28;20032;-84
2022/04/25 06:51:59;;;;;;;12.40;7.43;;;8.50;99.90;;;;;;5063238;28;20115;-85
2022/04/25 06:54:27;;;;;;;11.82;7.95;;;8.60;99.90;;;;;;5079952;28;20561;-84
2022/04/25 06:56:54;;;;;;;16.08;9.27;;;8.60;99.90;;;;;;5064160;28;20099;-85
2022/04/25 06:59:21;;;;;;;18.60;9.40;;;8.60;99.90;;;;;;5081606;28;20020;-84
2022/04/25 07:01:49;;;;;;;14.43;8.55;;;8.60;99.90;;;;;;5081135;28;20020;-84
2022/04/25 07:04:16;;;;;;;11.65;8.02;;;8.70;99.90;;;;;;5062828;28;20101;-80
2022/04/25 07:06:43;;;;;;;15.52;9.18;;;8.70;99.90;;;;;;5080113;28;20048;-83
2022/04/25 07:09:12;;;;;;;14.63;8.88;;;8.80;99.90;;;;;;5059341;28;20435;-82
2022/04/25 07:11:43;;;;;;;13.73;8.60;;;8.80;99.90;;;;;;5062064;28;20025;-81
2022/04/25 07:14:17;;;;;;;22.00;9.45;;;9.00;99.90;;;;;;5062392;28;20465;-82
2022/04/25 07:16:44;;;;;;;12.60;8.93;;;9.10;99.90;;;;;;5044980;28;20025;-81
2022/04/25 07:19:11;;;;;;;13.63;8.65;;;9.10;99.90;;;;;;5063147;28;20020;-83
2022/04/25 07:29:49;;;;;;;13.23;8.93;;;9.00;99.90;;;;;;5063887;28;20032;-84
2022/04/25 07:32:15;;;;;;;13.68;9.18;;;9.00;99.90;;;;;;5043769;28;20036;-87
2022/04/25 07:34:43;;;;;;;15.10;9.40;;;9.10;99.90;;;;;;5062803;28;20461;-82
2022/04/25 07:37:09;;;;;;;14.90;10.07;;;9.10;99.90;;;;;;5063040;28;20020;-86
2022/04/25 07:39:35;;;;;;;14.00;9.35;;;9.00;99.90;;;;;;5063525;28;20036;-85
2022/04/25 07:42:00;;;;;;;15.63;9.77;;;8.90;99.90;;;;;;5046278;28;20017;-84
2022/04/25 07:44:26;;;;;;;14.48;9.57;;;8.90;99.90;;;;;;5063325;28;20081;-85
2022/04/25 07:46:53;;;;;;;15.60;10.15;;;8.80;99.90;;;;;;5065225;28;20495;-83
2022/04/25 07:49:18;;;;;;;15.68;10.80;;;8.80;99.90;;;;;;5046571;28;20028;-87
2022/04/25 07:51:44;;;;;;;15.82;10.90;;;8.70;99.90;;;;;;5060537;28;20025;-83
2022/04/25 07:54:11;;;;;;;14.75;10.23;;;8.70;99.90;;;;;;5050962;28;20105;-85
2022/04/25 07:56:38;;;;;;;15.57;11.45;;;8.70;99.90;;;;;;5060569;28;20021;-86
2022/04/25 07:59:05;;;;;;;14.35;10.10;;;8.70;99.90;;;;;;5042067;28;20033;-85
2022/04/25 08:01:33;;;;;;;15.30;10.15;;;8.70;99.90;;;;;;5042112;28;20039;-87
2022/04/25 08:03:59;;;;;;;11.93;9.15;;;8.70;99.90;;;;;;5060438;28;20079;-83
2022/04/25 08:06:25;;;;;;;13.68;10.38;;;8.70;99.90;;;;;;5042269;28;20115;-83
2022/04/25 08:08:53;;;;;;;15.85;11.27;;;8.70;99.90;;;;;;5042977;28;20059;-86
2022/04/25 08:11:19;;;;;;;13.82;10.50;;;8.60;99.90;;;;;;5060399;28;20488;-87
2022/04/25 08:19:15;;;;;;;17.55;10.50;;;8.60;99.90;;;;;;5080628;28;20034;-86
2022/04/25 08:21:42;;;;;;;14.57;10.20;;;8.70;99.90;;;;;;5082215;28;20108;-83
2022/04/25 08:24:08;;;;;;;17.15;11.18;;;8.80;99.90;;;;;;5063688;28;20028;-86
2022/04/25 08:26:34;;;;;;;16.05;11.63;;;8.90;99.90;;;;;;5080937;28;20035;-83
2022/04/25 08:29:00;;;;;;;18.75;10.93;;;9.00;99.90;;;;;;5080429;28;20099;-83
2022/04/25 08:31:26;;;;;;;15.00;10.82;;;9.00;99.90;;;;;;5063514;28;20032;-86
2022/04/25 08:33:52;;;;;;;14.50;10.35;;;9.00;99.90;;;;;;5065872;28;20028;-83
2022/04/25 08:36:18;;;;;;;17.10;10.57;;;9.10;99.90;;;;;;5065363;28;20399;-83
2022/04/25 08:38:48;;;;;;;13.57;10.23;;;9.10;99.90;;;;;;5082972;28;20161;-83
2022/04/25 08:41:21;;;;;;;20.38;11.52;;;9.20;99.90;;;;;;5083553;28;20458;-86
2022/04/25 08:43:51;;;;;;;15.95;11.50;;;9.20;99.90;;;;;;5063727;28;20034;-82
2022/04/25 08:46:19;;;;;;;18.63;12.70;;;9.30;99.90;;;;;;5079837;28;20080;-83
2022/04/25 08:48:46;;;;;;;15.15;11.05;;;9.40;99.90;;;;;;5062723;28;20040;-85
2022/04/25 08:51:12;;;;;;;15.80;11.55;;;9.30;99.90;;;;;;5083188;28;20029;-82
2022/04/25 08:53:44;;;;;;;19.17;13.77;;;9.40;99.90;;;;;;5084918;28;20031;-86
2022/04/25 08:56:10;;;;;;;19.77;12.23;;;9.50;99.90;;;;;;5083533;28;20024;-83
2022/04/25 08:58:40;;;;;;;19.60;11.95;;;9.50;99.90;;;;;;5065253;28;20388;-81
2022/04/25 09:01:06;;;;;;;16.85;12.20;;;9.60;99.90;;;;;;5065884;28;20028;-82
2022/04/25 09:03:32;;;;;;;24.35;13.18;;;9.90;99.90;;;;;;5065585;28;20368;-83
2022/04/25 09:05:58;;;;;;;15.93;11.80;;;10.10;99.90;;;;;;5064619;28;20472;-83
2022/04/25 09:08:24;;;;;;;17.52;11.50;;;10.30;99.90;;;;;;5082601;28;20021;-86
2022/04/25 09:10:50;;;;;;;15.40;12.55;;;10.50;99.90;;;;;;5048346;28;20044;-85
2022/04/25 09:13:19;;;;;;;18.33;11.98;;;10.50;99.90;;;;;;5063284;28;20021;-84
2022/04/25 09:15:45;;;;;;;16.90;11.43;;;10.60;99.90;;;;;;5044788;28;20029;-83
2022/04/25 09:18:11;;;;;;;18.88;11.88;;;10.60;99.90;;;;;;5045734;28;20037;-85
2022/04/25 09:20:37;;;;;;;18.23;11.82;;;10.60;99.90;;;;;;5064861;28;20032;-84
2022/04/25 09:23:18;;;;;;;17.33;12.60;;;10.60;99.90;;;;;;5051678;28;20040;-83
2022/04/25 09:26:20;;;;;;;15.23;11.40;;;10.60;99.90;;;;;;5067299;28;20090;-83
2022/04/25 09:28:51;;;;;;;18.60;12.43;;;10.60;99.90;;;;;;5041892;28;20017;-85
2022/04/25 09:31:18;;;;;;;14.95;11.50;;;10.70;99.90;;;;;;5060500;28;20032;-82
2022/04/25 09:33:44;;;;;;;18.33;12.23;;;10.70;99.90;;;;;;5060568;28;20024;-83
2022/04/25 09:36:10;;;;;;;15.20;11.55;;;10.80;99.90;;;;;;5043306;28;20021;-83
2022/04/25 09:38:38;;;;;;;15.95;11.98;;;10.70;99.90;;;;;;5042172;28;20028;-84
2022/04/25 09:41:06;;;;;;;16.60;11.90;;;10.70;99.90;;;;;;5041128;28;20081;-83
2022/04/25 09:43:34;;;;;;;14.20;11.32;;;10.70;99.90;;;;;;5041750;28;20396;-82
2022/04/25 09:46:06;;;;;;;15.18;11.73;;;10.70;99.90;;;;;;5042478;28;20017;-86
2022/04/25 09:48:32;;;;;;;18.38;12.73;;;10.60;99.90;;;;;;5060784;28;20020;-83
2022/04/25 09:51:09;;;;;;;14.18;11.52;;;10.60;99.90;;;;;;5061883;28;20021;-82
2022/04/25 09:53:52;;;;;;;17.20;12.13;;;10.60;99.90;;;;;;5061953;28;20090;-85
2022/04/25 09:56:20;;;;;;;16.92;11.50;;;10.70;99.90;;;;;;5044061;28;20083;-85
2022/04/25 09:59:02;;;;;;;15.98;11.07;;;10.80;99.90;;;;;;5045315;28;20021;-83
2022/04/25 10:01:29;;;;;;;17.45;12.50;;;11.00;99.90;;;;;;5045485;28;20026;-84
2022/04/25 10:03:55;;;;;;;13.93;10.57;;;11.00;99.90;;;;;;5045551;28;20033;-86
2022/04/25 10:06:23;;;;;;;13.27;9.50;;;11.10;99.90;;;;;;5066860;28;20020;-81
2022/04/25 10:08:49;;;;;;;12.50;9.07;;;11.10;99.90;;;;;;5045319;28;20135;-81
2022/04/25 10:11:18;;;;;;;14.68;9.50;;;11.30;99.90;;;;;;5060946;28;20449;-84
2022/04/25 10:13:46;;;;;;;11.05;8.57;;;11.50;99.90;;;;;;5043247;28;20036;-83
2022/04/25 10:16:12;;;;;;;10.95;9.25;;;11.60;99.90;;;;;;5043322;28;20029;-80
2022/04/25 10:18:39;;;;;;;12.57;9.52;;;11.70;99.90;;;;;;5059493;28;20071;-84
2022/04/25 10:21:07;;;;;;;16.45;10.68;;;11.90;99.90;;;;;;5060402;28;20454;-84
2022/04/25 10:23:34;;;;;;;15.25;10.68;;;12.20;99.90;;;;;;5061266;28;20029;-84
2022/04/25 10:26:01;;;;;;;13.35;9.40;;;12.70;99.90;;;;;;5044166;28;20032;-84
2022/04/25 10:28:39;;;;;;;12.52;9.55;;;13.30;99.90;;;;;;5061153;28;20045;-85
2022/04/25 10:31:14;;;;;;;12.52;8.57;;;13.90;99.90;;;;;;5043019;28;20029;-85
2022/04/25 10:33:54;;;;;;;12.00;10.15;;;14.40;99.90;;;;;;5062733;28;20148;-84
2022/04/25 10:36:38;;;;;;;11.52;8.55;;;15.10;99.90;;;;;;5045188;28;20032;-84
2022/04/25 10:39:31;;;;;;;11.35;8.68;;;15.60;99.90;;;;;;5045140;28;20032;-86
2022/04/25 10:44:42;;;;;;;11.50;9.13;;;15.90;99.90;;;;;;5061302;28;20035;-84
2022/04/25 10:47:11;;;;;;;12.07;9.48;;;15.80;99.90;;;;;;5062244;28;20021;-84
2022/04/25 10:49:37;;;;;;;13.80;9.60;;;15.70;99.90;;;;;;5061097;28;20025;-83
2022/04/25 10:52:07;;;;;;;11.23;9.77;;;15.40;99.90;;;;;;5060928;28;20429;-83
2022/04/25 10:54:51;;;;;;;12.77;10.27;;;15.20;99.90;;;;;;5061431;28;20040;-87
2022/04/25 10:57:18;;;;;;;13.32;9.93;;;15.30;99.90;;;;;;5060690;28;20028;-84
2022/04/25 10:59:44;;;;;;;13.18;10.43;;;15.80;99.90;;;;;;5061005;28;20045;-84
2022/04/25 11:02:26;;;;;;;14.90;10.63;;;16.20;99.90;;;;;;5046566;28;20040;-84
2022/04/25 11:05:10;;;;;;;11.88;9.57;;;16.30;99.90;;;;;;5063776;28;20029;-87
2022/04/25 11:07:41;;;;;;;13.77;10.48;;;16.20;99.90;;;;;;5064534;28;20082;-83
2022/04/25 11:10:09;;;;;;;14.57;10.40;;;16.30;99.90;;;;;;5077148;28;20113;-82
2022/04/25 11:12:57;;;;;;;12.15;10.30;;;16.20;99.90;;;;;;5083243;28;20025;-87
2022/04/25 11:15:44;;;;;;;14.40;10.55;;;15.80;99.90;;;;;;5065358;28;20073;-88
2022/04/25 11:18:35;;;;;;;14.30;10.95;;;15.50;99.90;;;;;;5064458;28;20451;-85
2022/04/25 11:21:16;;;;;;;13.27;10.18;;;15.40;99.90;;;;;;5083344;28;20021;-84
2022/04/25 11:23:44;;;;;;;11.75;9.93;;;15.00;99.90;;;;;;5082227;28;20024;-83
2022/04/25 11:26:36;;;;;;;14.55;10.60;;;14.70;99.90;;;;;;5063705;28;20036;-86
2022/04/25 11:29:10;;;;;;;14.13;10.77;;;14.40;99.90;;;;;;5063089;28;20017;-83
2022/04/25 11:31:40;;;;;;;13.18;10.88;;;14.20;99.90;;;;;;5083594;28;20028;-86
2022/04/25 11:34:11;;;;;;;12.57;10.02;;;13.80;99.90;;;;;;5082841;28;20039;-83
2022/04/25 11:36:45;;;;;;;12.85;10.68;;;13.70;99.90;;;;;;5081687;28;20048;-83
2022/04/25 11:42:01;;;;;;;12.77;10.13;;;13.40;99.90;;;;;;5082255;28;20052;-84
2022/04/25 11:44:27;;;;;;;13.50;10.10;;;13.30;99.90;;;;;;5064528;28;20031;-84
2022/04/25 11:46:53;;;;;;;12.38;9.82;;;12.90;99.90;;;;;;5082680;28;20032;-83
2022/04/25 11:49:30;;;;;;;13.60;9.70;;;12.80;99.90;;;;;;5065029;28;20054;-83
2022/04/25 11:51:58;;;;;;;13.40;10.50;;;12.80;99.90;;;;;;5082420;28;20107;-83
2022/04/25 11:54:25;;;;;;;13.65;10.48;;;12.70;99.90;;;;;;5064574;28;20024;-85
2022/04/25 11:56:51;;;;;;;12.43;10.00;;;12.60;99.90;;;;;;5081532;28;20059;-81
2022/04/25 11:59:18;;;;;;;12.05;9.43;;;12.50;99.90;;;;;;5081715;28;20429;-86
2022/04/25 12:01:52;;;;;;;11.73;9.40;;;12.50;99.90;;;;;;5063568;28;20047;-83
2022/04/25 12:04:23;;;;;;;12.00;9.88;;;12.40;99.90;;;;;;5062041;28;20572;-84
2022/04/25 12:06:56;;;;;;;10.48;8.98;;;12.40;99.90;;;;;;5063495;28;20040;-84
2022/04/25 12:18:17;;;;;;;13.70;9.73;;;12.00;99.90;;;;;;5062226;28;20043;-84
2022/04/25 12:21:04;;;;;;;10.63;8.20;;;11.90;99.90;;;;;;5066198;28;20025;-87
2022/04/25 12:23:31;;;;;;;14.85;10.40;;;11.80;99.90;;;;;;5044021;28;20025;-84
2022/04/25 12:26:02;;;;;;;12.80;9.55;;;11.70;99.90;;;;;;5060414;28;20060;-86
2022/04/25 12:28:30;;;;;;;18.48;9.30;;;11.60;99.90;;;;;;5061819;28;20503;-83
2022/04/25 12:31:03;;;;;;;12.35;9.43;;;11.50;99.90;;;;;;5044642;28;20401;-85
2022/04/25 12:33:35;;;;;;;15.98;10.95;;;11.30;99.90;;;;;;5065409;28;20099;-83
2022/04/25 12:36:19;;;;;;;17.35;12.02;;;11.10;99.90;;;;;;5045961;28;20031;-85
2022/04/25 12:38:50;;;;;;;15.25;12.00;;;11.00;99.90;;;;;;5046303;28;20032;-83
2022/04/25 12:41:31;;;;;;;19.25;12.70;;;10.90;99.90;;;;;;5047207;28;20025;-84
2022/04/25 12:44:21;;;;;;;17.63;12.30;;;10.90;99.90;;;;;;5063991;28;20024;-83
2022/04/25 12:46:50;;;;;;;15.27;11.30;;;10.90;99.90;;;;;;5061555;28;20039;-82
2022/04/25 12:49:16;;;;;;;15.35;11.48;;;11.00;99.90;;;;;;5061236;28;20480;-82
2022/04/25 12:51:46;;;;;;;14.25;10.55;;;11.00;99.90;;;;;;5044474;28;20025;-83
2022/04/25 12:54:22;;;;;;;13.70;11.57;;;11.00;99.90;;;;;;5061362;28;20036;-84
2022/04/25 12:56:50;;;;;;;16.38;11.18;;;11.00;99.90;;;;;;5062578;28;20029;-87
2022/04/25 12:59:30;;;;;;;15.55;11.35;;;11.00;99.90;;;;;;5062274;28;20021;-82
2022/04/25 13:02:07;;;;;;;17.65;12.50;;;10.90;99.90;;;;;;5063496;28;20032;-85
2022/04/25 13:04:48;;;;;;;14.02;11.85;;;11.00;99.90;;;;;;5061612;28;20032;-82
2022/04/25 13:07:14;;;;;;;17.27;11.85;;;10.90;99.90;;;;;;5061391;28;20104;-83
2022/04/25 13:09:40;;;;;;;15.48;11.48;;;10.90;99.90;;;;;;5069362;28;20029;-84
2022/04/25 13:12:14;;;;;;;14.73;11.85;;;10.80;99.90;;;;;;5081986;28;20024;-85
2022/04/25 13:14:39;;;;;;;13.15;10.57;;;10.70;99.90;;;;;;5064116;28;20035;-85
2022/04/25 13:17:06;;;;;;;16.15;9.88;;;10.70;99.90;;;;;;5083888;28;20021;-83
2022/04/25 13:19:32;;;;;;;12.68;10.07;;;10.70;99.90;;;;;;5083783;28;20353;-85
2022/04/25 13:21:58;;;;;;;14.23;10.90;;;10.60;99.90;;;;;;5082797;28;20031;-84
2022/04/25 13:24:23;;;;;;;12.90;10.52;;;10.70;99.90;;;;;;5082604;28;20040;-83